Latest Weather Observations for Blackall

IDQ60801

Issued at 5:35 am EST Tuesday 25 November 2014 (issued every 30 minutes, with the page automatically refreshed every 10 minutes)

About weather observations | Map of weather stations | Latest weather observations for QLD | Other Formats
Station Details ID: 036034 Name: BLACKALL AIRPORT Lat: -24.43 Lon: 145.43 Height: 281.3 m
Data from the previous 72 hours. | See also: Recent months at Blackall
Date/Time
EST
Temp
°C
App
Temp
°C
Dew
Point
Rel
Hum
%
Delta-T
°C
Wind Press
QNH
hPa
Press
MSL
hPa
Rain
since 9 am
mm
Dir
 
Spd
km/h
Gust
km/h
Spd
kts
Gust
kts
25/05:30am 26.0 24.2 16.0 54 6.2 NE 20 26 11 14 1013.2 1011.5 0.0
25/05:00am 25.9 24.1 15.6 53 6.3 NE 19 24 10 13 1012.9 1011.2 0.0
25/04:30am 26.1 24.8 14.9 50 6.8 ENE 15 20 8 11 1012.6 1010.8 0.0
25/04:00am 26.1 25.1 15.5 52 6.5 E 15 20 8 11 1012.4 1010.6 0.0
25/03:30am 26.5 24.8 15.8 51 6.6 E 19 24 10 13 1012.2 1010.4 0.0
25/03:00am 26.6 25.3 15.9 51 6.6 E 17 22 9 12 1012.1 1010.3 0.0
25/02:30am 26.7 26.2 16.0 52 6.6 ESE 13 19 7 10 1012.1 1010.3 0.0
25/02:00am 26.7 26.3 16.3 53 6.5 ESE 13 17 7 9 1012.2 1010.4 0.0
25/01:30am 26.8 26.5 16.4 53 6.5 SE 13 15 7 8 1012.4 1010.6 0.0
25/01:00am 27.5 27.2 16.5 51 6.9 SSE 13 17 7 9 1012.7 1011.0 0.0
25/12:30am 28.2 27.2 16.5 49 7.4 SSE 17 24 9 13 1012.6 1010.8 0.0
25/12:00am 28.8 26.8 16.4 47 7.8 SSE 22 32 12 17 1012.6 1010.8 0.0
 
Date/Time
EST
Temp
°C
App
Temp
°C
Dew
Point
Rel
Hum
%
Delta-T
°C
Wind Press
QNH
hPa
Press
MSL
hPa
Rain
since 9 am
mm
Dir
 
Spd
km/h
Gust
km/h
Spd
kts
Gust
kts
24/11:30pm 29.2 27.3 15.7 44 8.4 S 20 33 11 18 1012.7 1011.0 0.0
24/11:00pm 29.4 27.5 15.1 41 8.8 S 19 26 10 14 1012.9 1011.2 0.0
24/10:30pm 30.0 27.8 14.5 38 9.5 S 19 26 10 14 1012.8 1011.1 0.0
24/10:00pm 30.6 28.1 11.1 30 11.4 SSE 15 19 8 10 1012.6 1010.8 0.0
24/09:30pm 29.1 26.0 7.1 25 11.9 NE 13 15 7 8 1011.6 1009.8 0.0
24/09:00pm 30.6 28.0 7.7 24 12.7 NNE 11 13 6 7 1011.4 1009.6 0.0
24/08:30pm 31.4 29.2 7.8 23 13.1 NNE 9 11 5 6 1011.3 1009.5 0.0
24/08:00pm 32.2 30.2 7.1 21 13.9 NNE 7 11 4 6 1011.0 1009.2 0.0
24/07:30pm 33.7 31.4 7.6 20 14.6 NNE 9 11 5 6 1010.6 1008.8 0.0
24/07:00pm 34.6 32.3 7.6 19 15.2 NNE 9 13 5 7 1010.2 1008.5 0.0
24/06:30pm 36.1 34.1 7.2 17 16.3 N 7 13 4 7 1009.9 1008.2 0.0
24/06:00pm 37.2 36.0 6.3 15 17.3 E 2 7 1 4 1009.7 1008.0 0.0
24/05:30pm 37.5 35.2 7.4 16 17.1 NE 9 17 5 9 1009.3 1007.5 0.0
24/05:00pm 37.7 34.8 6.6 15 17.5 E 11 20 6 11 1009.2 1007.4 0.0
24/04:30pm 37.8 35.2 7.7 16 17.2 ESE 11 20 6 11 1009.2 1007.4 0.0
24/04:00pm 38.1 34.9 7.0 15 17.7 N 13 17 7 9 1009.1 1007.3 0.0
24/03:30pm 38.3 36.5 8.1 16 17.4 ENE 7 19 4 10 1009.4 1007.6 0.0
24/03:00pm 37.3 35.2 8.2 17 16.8 E 9 32 5 17 1009.7 1008.0 0.0
24/02:30pm 37.7 35.5 9.3 18 16.6 ENE 11 19 6 10 1010.5 1008.7 0.0
24/02:00pm 37.4 35.2 10.7 20 15.9 NW 13 24 7 13 1011.1 1009.3 0.0
24/01:30pm 37.1 34.4 11.8 22 15.3 N 17 24 9 13 1011.7 1009.9 0.0
24/01:00pm 35.6 32.6 11.9 24 14.3 N 19 32 10 17 1012.3 1010.5 0.0
24/12:30pm 36.0 33.3 12.9 25 14.2 N 19 32 10 17 1012.9 1011.2 0.0
24/12:00pm 35.7 32.9 13.2 26 13.8 N 20 28 11 15 1013.3 1011.6 0.0
24/11:30am 34.6 31.3 14.0 29 12.8 N 24 35 13 19 1013.8 1012.1 0.0
24/11:00am 34.0 31.8 14.5 31 12.1 N 19 32 10 17 1014.3 1012.5 0.0
24/10:30am 33.5 31.7 15.5 34 11.4 N 19 30 10 16 1014.6 1012.8 0.0
24/10:00am 32.8 30.5 15.8 36 10.7 N 22 33 12 18 1014.8 1013.0 0.0
24/09:30am 31.6 29.4 16.0 39 9.8 NNE 22 32 12 17 1015.0 1013.2 0.0
24/09:00am 30.6 28.0 15.8 40 9.3 N 24 37 13 20 1015.1 1013.3 0.0
24/08:30am 29.8 27.5 16.6 45 8.4 NNE 24 39 13 21 1015.3 1013.5 0.0
24/08:00am 29.4 27.7 17.2 47 7.8 NNE 22 32 12 17 1015.1 1013.3 0.0
24/07:30am 28.4 25.9 17.0 50 7.2 NNE 26 39 14 21 1014.8 1013.0 0.0
24/07:00am 27.7 26.1 16.0 49 7.3 NNE 19 26 10 14 1014.5 1012.7 0.0
24/06:30am 27.0 25.5 15.4 49 7.1 NE 17 20 9 11 1014.3 1012.5 0.0
24/06:00am 26.0 25.2 15.1 51 6.7 NNE 13 17 7 9 1013.9 1012.2 0.0
24/05:30am 25.8 24.4 14.6 50 6.8 NNE 15 20 8 11 1013.5 1011.8 0.0
24/05:00am 25.7 24.2 14.2 49 6.9 NE 15 20 8 11 1013.1 1011.4 0.0
24/04:30am 25.0 23.5 13.2 48 7.0 NE 13 17 7 9 1012.9 1011.2 0.0
24/04:00am 24.8 24.4 14.0 51 6.4 ENE 9 13 5 7 1012.7 1011.0 0.0
24/03:30am 25.3 24.9 14.1 50 6.7 NE 9 13 5 7 1012.4 1010.6 0.0
24/03:00am 25.3 25.3 15.3 54 6.1 E 9 11 5 6 1012.3 1010.5 0.0
24/02:30am 25.7 25.5 15.7 54 6.2 E 11 11 6 6 1012.1 1010.3 0.0
24/02:00am 26.1 26.2 15.5 52 6.5 E 9 11 5 6 1012.2 1010.4 0.0
24/01:30am 26.6 26.1 15.9 51 6.6 E 13 15 7 8 1012.4 1010.6 0.0
24/01:00am 26.6 27.0 16.2 52 6.5 E 9 13 5 7 1012.7 1011.0 0.0
24/12:30am 27.0 27.1 16.6 53 6.5 E 11 13 6 7 1013.0 1011.3 0.0
24/12:00am 27.3 27.9 16.9 53 6.6 E 9 13 5 7 1013.3 1011.6 0.0
 
Date/Time
EST
Temp
°C
App
Temp
°C
Dew
Point
Rel
Hum
%
Delta-T
°C
Wind Press
QNH
hPa
Press
MSL
hPa
Rain
since 9 am
mm
Dir
 
Spd
km/h
Gust
km/h
Spd
kts
Gust
kts
23/11:30pm 27.4 28.1 17.0 53 6.6 ESE 9 11 5 6 1013.4 1011.7 0.0
23/11:00pm 27.9 28.4 17.4 52 6.7 SE 11 15 6 8 1013.5 1011.8 0.0
23/10:30pm 28.2 28.8 17.7 53 6.7 ESE 11 15 6 8 1013.5 1011.8 0.0
23/10:00pm 28.3 29.1 18.1 54 6.6 SE 11 15 6 8 1013.3 1011.6 0.0
23/09:30pm 28.6 29.9 18.4 54 6.6 SE 9 13 5 7 1013.1 1011.4 0.0
23/09:00pm 28.9 30.3 18.7 54 6.6 SE 9 11 5 6 1012.8 1011.1 0.0
23/08:30pm 29.4 30.1 18.8 53 6.9 SE 13 17 7 9 1012.4 1010.6 0.0
23/08:00pm 30.0 31.1 18.8 51 7.3 SSE 11 13 6 7 1012.0 1010.2 0.0
23/07:30pm 30.7 32.2 18.1 47 8.2 S 7 9 4 5 1011.9 1010.1 0.0
23/07:00pm 31.4 33.2 17.3 43 9.1 S 4 6 2 3 1011.7 1009.9 0.0
23/06:30pm 31.4 33.3 16.6 41 9.4 S 2 7 1 4 1011.3 1009.5 0.0
23/06:00pm 31.6 32.1 15.5 37 10.1 S 7 11 4 6 1011.1 1009.3 0.0
23/05:30pm 32.0 31.0 15.5 37 10.4 S 15 19 8 10 1011.1 1009.3 0.0
23/05:00pm 34.0 31.3 14.5 31 12.2 S 22 33 12 18 1011.2 1009.4 0.0
23/04:30pm 33.9 33.9 16.3 35 11.2 NW 11 17 6 9 1010.5 1008.7 0.0
23/04:11pm 33.7 29.1 15.2 33 11.6 NW 33 54 18 29 1010.3 1008.6 0.0
23/04:06pm 33.4 28.2 14.5 32 11.7 NNW 35 48 19 26 1010.5 1008.7 0.0
23/04:00pm 38.8 36.1 11.8 20 16.5 NNE 17 28 9 15 1010.1 1008.4 0.0
23/03:30pm 39.2 39.0 13.6 22 16.0 NNW 7 13 4 7 1010.2 1008.5 0.0
23/03:00pm 39.0 38.0 14.7 23 15.4 N 13 19 7 10 1010.9 1009.1 0.0
23/02:30pm 39.2 37.3 14.3 23 15.7 N 17 28 9 15 1011.6 1009.8 0.0
23/02:00pm 38.9 38.8 15.9 25 14.8 N 11 20 6 11 1012.3 1010.5 0.0
23/01:30pm 39.2 37.7 16.2 26 14.9 N 19 22 10 12 1012.8 1011.1 0.0
23/01:00pm 38.5 37.4 17.3 28 13.9 NE 19 26 10 14 1013.5 1011.8 0.0
23/12:30pm 36.5 35.3 16.1 29 13.1 N 17 28 9 15 1013.9 1012.2 0.0
23/12:00pm 35.7 34.4 15.9 30 12.6 N 17 22 9 12 1014.4 1012.6 0.0
23/11:30am 35.9 35.3 17.6 34 12.0 N 17 26 9 14 1014.9 1013.1 0.0
23/11:00am 35.0 34.6 17.2 34 11.5 N 15 24 8 13 1015.4 1013.6 0.0
23/10:30am 34.9 33.9 17.6 35 11.3 NNE 19 30 10 16 1015.6 1013.8 0.0
23/10:00am 34.3 33.4 18.3 38 10.5 N 20 33 11 18 1015.8 1014.0 0.0
23/09:30am 33.6 32.1 18.5 40 9.9 N 24 32 13 17 1015.8 1014.0 0.0
23/09:00am 32.4 30.9 18.6 44 9.1 N 24 35 13 19 1015.9 1014.2 3.2
23/08:30am 31.1 28.5 17.8 45 8.6 N 28 37 15 20 1015.9 1014.2 3.2
23/08:00am 30.6 28.8 18.7 49 7.8 N 26 33 14 18 1015.9 1014.2 3.2
23/07:30am 29.6 28.8 18.4 51 7.3 NNE 20 32 11 17 1015.6 1013.8 3.2
23/07:00am 28.7 28.3 18.8 55 6.4 NNE 19 28 10 15 1015.4 1013.6 3.2
23/06:30am 27.2 28.0 19.0 61 5.3 NE 13 20 7 11 1014.9 1013.1 3.2
23/06:00am 24.1 27.4 20.0 78 2.7 E 2 7 1 4 1014.6 1012.8 3.2
23/05:30am 23.4 27.0 19.8 80 2.3 CALM 0 0 0 0 1014.0 1012.3 3.2
23/05:00am 23.4 27.2 20.1 82 2.2 CALM 0 0 0 0 1013.3 1011.6 3.2
23/04:30am 23.4 25.9 19.1 77 2.8 NE 4 7 2 4 1012.7 1011.0 3.2
23/04:00am 23.9 27.6 20.0 79 2.5 CALM 0 6 0 3 1012.4 1010.6 3.2
23/03:30am 24.5 26.0 18.9 71 3.6 ENE 9 13 5 7 1012.1 1010.3 3.2
23/03:00am 24.3 27.5 20.4 79 2.6 E 4 9 2 5 1011.8 1010.0 3.2
23/02:30am 24.7 28.0 19.1 71 3.6 CALM 0 0 0 0 1011.6 1009.8 3.2
23/02:00am 25.2 28.9 20.0 73 3.4 CALM 0 6 0 3 1011.6 1009.8 3.2
23/01:30am 25.8 27.2 17.7 61 5.1 SSE 7 9 4 5 1011.8 1010.0 3.2
23/01:00am 26.5 27.2 17.0 56 6.0 NE 9 11 5 6 1011.9 1010.1 3.2
23/12:30am 26.9 27.2 17.9 57 5.8 ENE 13 15 7 8 1012.2 1010.4 3.2
23/12:00am 27.7 29.8 18.1 56 6.2 NW 4 9 2 5 1012.5 1010.7 3.2
 
Date/Time
EST
Temp
°C
App
Temp
°C
Dew
Point
Rel
Hum
%
Delta-T
°C
Wind Press
QNH
hPa
Press
MSL
hPa
Rain
since 9 am
mm
Dir
 
Spd
km/h
Gust
km/h
Spd
kts
Gust
kts
22/11:30pm 29.3 29.5 15.8 44 8.4 WNW 9 17 5 9 1012.2 1010.4 3.2
22/11:00pm 28.7 30.1 17.9 52 6.9 WSW 7 13 4 7 1012.6 1010.8 3.2
22/10:30pm 28.9 30.8 17.7 50 7.2 ESE 4 9 2 5 1012.4 1010.6 3.2
22/10:00pm 29.3 30.3 16.8 47 7.9 NE 7 9 4 5 1012.5 1010.7 3.2
22/09:30pm 29.7 28.4 15.8 43 8.7 N 17 20 9 11 1011.9 1010.1 3.2
22/09:00pm 28.4 26.9 16.3 47 7.6 N 19 28 10 15 1012.3 1010.5 3.2
22/08:30pm 27.2 25.7 17.7 56 6.1 N 22 32 12 17 1012.8 1011.1 3.2
22/08:00pm 26.5 25.2 17.3 57 5.8 ENE 20 28 11 15 1013.3 1011.6 3.2
22/07:30pm 27.9 26.8 17.7 53 6.5 E 20 26 11 14 1012.4 1010.6 2.0
22/07:28pm 27.3 25.5 17.8 56 6.1 ESE 24 26 13 14 1012.4 1010.6 1.6
22/07:21pm 25.7 20.4 16.3 56 5.8 SSE 39 48 21 26 1012.5 1010.7 1.0
22/07:11pm 28.8 25.7 14.6 42 8.7 S 24 54 13 29 1012.7 1011.0 0.0
22/07:00pm 33.9 31.0 12.8 28 12.8 SSW 20 35 11 19 1012.0 1010.2 0.0
22/06:30pm 33.5 29.5 13.0 29 12.5 ENE 26 39 14 21 1010.6 1008.8 0.0
22/06:00pm 34.3 30.5 13.7 29 12.7 ENE 26 35 14 19 1009.7 1008.0 0.0
22/05:30pm 35.7 32.0 12.6 25 14.1 NE 24 35 13 19 1009.6 1007.9 0.0
22/05:00pm 37.2 34.6 11.9 22 15.4 NW 17 26 9 14 1009.0 1007.2 0.0
22/04:30pm 37.7 35.7 11.6 21 15.8 NNW 13 19 7 10 1008.4 1006.6 0.0
22/04:00pm 37.8 34.4 12.4 22 15.6 NW 22 35 12 19 1008.6 1006.8 0.0
22/03:52pm 37.3 32.2 12.0 22 15.4 NNW 30 48 16 26 1008.6 1006.8 0.0
22/03:37pm 38.8 33.8 11.0 19 16.8 WNW 28 35 15 19 1008.7 1006.9 0.0
22/03:30pm 40.1 39.2 11.2 18 17.6 W 7 13 4 7 1008.8 1007.0 0.0
22/03:00pm 39.7 38.5 11.7 19 17.1 NNW 9 15 5 8 1009.1 1007.3 0.0
22/02:30pm 41.2 38.8 11.3 17 18.3 N 15 32 8 17 1009.5 1007.8 0.0
22/02:00pm 39.6 37.4 10.8 18 17.4 NNE 13 24 7 13 1010.1 1008.4 0.0
22/01:30pm 39.8 38.0 11.0 18 17.4 NW 11 20 6 11 1010.7 1008.9 0.0
22/01:00pm 38.9 37.6 11.1 19 16.8 NNE 9 22 5 12 1011.3 1009.5 0.0
22/12:30pm 39.8 37.0 13.3 20 16.5 NNW 20 28 11 15 1011.6 1009.8 0.0
22/12:00pm 38.9 37.5 13.3 22 15.9 NNE 13 17 7 9 1012.1 1010.3 0.0
22/11:30am 37.5 35.3 12.2 22 15.4 NW 15 20 8 11 1012.5 1010.7 0.0
22/11:00am 37.2 36.5 13.2 23 14.8 NNW 9 20 5 11 1012.8 1011.1 0.0
22/10:30am 36.6 35.4 14.0 26 14.1 N 13 22 7 12 1013.1 1011.4 0.0
22/10:00am 35.6 33.7 14.3 28 13.3 N 17 28 9 15 1013.4 1011.7 0.0
22/09:30am 34.2 31.9 14.7 31 12.2 N 20 28 11 15 1013.6 1011.9 0.0
22/09:00am 33.4 31.4 15.4 34 11.3 N 20 28 11 15 1013.7 1012.0 3.0
22/08:30am 32.3 30.2 15.3 35 10.6 N 20 28 11 15 1013.8 1012.1 3.0
22/08:00am 31.1 29.1 15.5 39 9.8 NNE 20 24 11 13 1013.8 1012.1 3.0
22/07:30am 29.6 29.2 17.1 47 8.0 ENE 15 20 8 11 1013.9 1012.2 3.0
22/07:00am 27.8 27.8 17.3 52 6.7 ENE 13 17 7 9 1013.6 1011.9 3.0
22/06:30am 26.5 27.4 17.6 58 5.7 E 9 13 5 7 1013.3 1011.6 3.0
22/06:00am 24.6 26.2 19.2 72 3.5 E 9 11 5 6 1012.8 1011.1 3.0

Other Formats:

Comma delimited format used in spreadsheet applications
http://www.bom.gov.au/fwo/IDQ60801/IDQ60801.95351.axf

JavaScript Object Notation format (JSON) in row-major order
http://www.bom.gov.au/fwo/IDQ60801/IDQ60801.95351.json